sensor_id;sensor_type;location;lat;lon;timestamp;P1;durP1;ratioP1;P2;durP2;ratioP2
19505;SDS011;9894;50.852;-0.140;2022-07-01T00:00:08;4.28;;;1.73;;
19505;SDS011;9894;50.852;-0.140;2022-07-01T00:02:35;5.22;;;1.45;;
19505;SDS011;9894;50.852;-0.140;2022-07-01T00:05:01;6.03;;;1.63;;
19505;SDS011;9894;50.852;-0.140;2022-07-01T00:07:27;7.05;;;1.70;;
19505;SDS011;9894;50.852;-0.140;2022-07-01T00:09:53;7.47;;;2.05;;
19505;SDS011;9894;50.852;-0.140;2022-07-01T00:12:19;5.25;;;1.63;;
19505;SDS011;9894;50.852;-0.140;2022-07-01T00:14:45;7.10;;;1.65;;
19505;SDS011;9894;50.852;-0.140;2022-07-01T00:17:11;9.90;;;2.03;;
19505;SDS011;9894;50.852;-0.140;2022-07-01T00:19:37;6.80;;;1.88;;
19505;SDS011;9894;50.852;-0.140;2022-07-01T00:22:03;5.55;;;1.63;;
19505;SDS011;9894;50.852;-0.140;2022-07-01T00:24:29;8.57;;;1.60;;
19505;SDS011;9894;50.852;-0.140;2022-07-01T00:26:56;5.38;;;1.50;;
19505;SDS011;9894;50.852;-0.140;2022-07-01T00:29:22;5.85;;;1.70;;
19505;SDS011;9894;50.852;-0.140;2022-07-01T00:31:48;9.25;;;1.70;;
19505;SDS011;9894;50.852;-0.140;2022-07-01T00:34:14;6.82;;;1.73;;
19505;SDS011;9894;50.852;-0.140;2022-07-01T00:36:40;9.15;;;1.80;;
19505;SDS011;9894;50.852;-0.140;2022-07-01T00:39:06;7.35;;;1.73;;
19505;SDS011;9894;50.852;-0.140;2022-07-01T00:41:32;7.32;;;1.55;;
19505;SDS011;9894;50.852;-0.140;2022-07-01T00:43:58;7.93;;;1.88;;
19505;SDS011;9894;50.852;-0.140;2022-07-01T00:46:24;11.75;;;2.50;;
19505;SDS011;9894;50.852;-0.140;2022-07-01T00:48:51;8.10;;;2.00;;
19505;SDS011;9894;50.852;-0.140;2022-07-01T00:51:18;7.13;;;1.80;;
19505;SDS011;9894;50.852;-0.140;2022-07-01T00:53:44;8.68;;;1.80;;
19505;SDS011;9894;50.852;-0.140;2022-07-01T00:56:11;8.02;;;1.60;;
19505;SDS011;9894;50.852;-0.140;2022-07-01T00:58:37;8.23;;;1.80;;
19505;SDS011;9894;50.852;-0.140;2022-07-01T01:01:03;5.93;;;2.10;;
19505;SDS011;9894;50.852;-0.140;2022-07-01T01:03:29;9.00;;;1.92;;
19505;SDS011;9894;50.852;-0.140;2022-07-01T01:05:56;4.97;;;1.92;;
19505;SDS011;9894;50.852;-0.140;2022-07-01T01:08:23;7.18;;;1.95;;
19505;SDS011;9894;50.852;-0.140;2022-07-01T01:10:50;6.30;;;1.90;;
19505;SDS011;9894;50.852;-0.140;2022-07-01T01:13:17;5.88;;;1.90;;
19505;SDS011;9894;50.852;-0.140;2022-07-01T01:15:43;3.80;;;1.83;;
19505;SDS011;9894;50.852;-0.140;2022-07-01T01:18:09;5.63;;;1.98;;
19505;SDS011;9894;50.852;-0.140;2022-07-01T01:20:36;9.65;;;2.15;;
19505;SDS011;9894;50.852;-0.140;2022-07-01T01:23:02;5.50;;;1.73;;
19505;SDS011;9894;50.852;-0.140;2022-07-01T01:25:32;6.45;;;1.85;;
19505;SDS011;9894;50.852;-0.140;2022-07-01T01:27:58;9.65;;;1.90;;
19505;SDS011;9894;50.852;-0.140;2022-07-01T01:30:25;5.00;;;1.50;;
19505;SDS011;9894;50.852;-0.140;2022-07-01T01:32:51;2.25;;;1.50;;
19505;SDS011;9894;50.852;-0.140;2022-07-01T01:35:18;6.75;;;1.60;;
19505;SDS011;9894;50.852;-0.140;2022-07-01T01:37:44;4.40;;;1.58;;
19505;SDS011;9894;50.852;-0.140;2022-07-01T01:40:10;4.93;;;1.38;;
19505;SDS011;9894;50.852;-0.140;2022-07-01T01:42:39;3.28;;;1.38;;
19505;SDS011;9894;50.852;-0.140;2022-07-01T01:45:05;5.55;;;1.65;;
19505;SDS011;9894;50.852;-0.140;2022-07-01T01:47:31;3.70;;;1.38;;
19505;SDS011;9894;50.852;-0.140;2022-07-01T01:49:58;5.68;;;1.52;;
19505;SDS011;9894;50.852;-0.140;2022-07-01T01:52:24;4.93;;;1.80;;
19505;SDS011;9894;50.852;-0.140;2022-07-01T01:54:50;5.38;;;1.38;;
19505;SDS011;9894;50.852;-0.140;2022-07-01T01:57:16;7.07;;;1.70;;
19505;SDS011;9894;50.852;-0.140;2022-07-01T01:59:42;8.75;;;1.83;;
19505;SDS011;9894;50.852;-0.140;2022-07-01T02:02:08;6.22;;;1.58;;
19505;SDS011;9894;50.852;-0.140;2022-07-01T02:04:34;5.78;;;1.58;;
19505;SDS011;9894;50.852;-0.140;2022-07-01T02:07:00;3.55;;;1.65;;
19505;SDS011;9894;50.852;-0.140;2022-07-01T02:09:26;7.50;;;2.28;;
19505;SDS011;9894;50.852;-0.140;2022-07-01T02:11:53;4.13;;;1.50;;
19505;SDS011;9894;50.852;-0.140;2022-07-01T02:14:20;4.25;;;1.73;;
19505;SDS011;9894;50.852;-0.140;2022-07-01T02:16:46;6.57;;;1.52;;
19505;SDS011;9894;50.852;-0.140;2022-07-01T02:19:12;5.95;;;1.55;;
19505;SDS011;9894;50.852;-0.140;2022-07-01T02:21:39;4.75;;;1.77;;
19505;SDS011;9894;50.852;-0.140;2022-07-01T02:24:05;5.65;;;1.65;;
19505;SDS011;9894;50.852;-0.140;2022-07-01T02:26:31;6.20;;;1.80;;
19505;SDS011;9894;50.852;-0.140;2022-07-01T02:28:57;5.72;;;1.67;;
19505;SDS011;9894;50.852;-0.140;2022-07-01T02:31:24;5.95;;;1.75;;
19505;SDS011;9894;50.852;-0.140;2022-07-01T02:33:50;6.03;;;1.60;;
19505;SDS011;9894;50.852;-0.140;2022-07-01T02:36:16;4.15;;;1.52;;
19505;SDS011;9894;50.852;-0.140;2022-07-01T02:38:42;5.28;;;1.50;;
19505;SDS011;9894;50.852;-0.140;2022-07-01T02:41:08;6.38;;;1.58;;
19505;SDS011;9894;50.852;-0.140;2022-07-01T02:43:35;4.97;;;1.67;;
19505;SDS011;9894;50.852;-0.140;2022-07-01T02:46:01;6.35;;;2.13;;
19505;SDS011;9894;50.852;-0.140;2022-07-01T02:48:28;6.07;;;1.95;;
19505;SDS011;9894;50.852;-0.140;2022-07-01T02:50:54;6.60;;;1.88;;
19505;SDS011;9894;50.852;-0.140;2022-07-01T02:53:20;2.65;;;1.70;;
19505;SDS011;9894;50.852;-0.140;2022-07-01T02:55:46;6.63;;;1.55;;
19505;SDS011;9894;50.852;-0.140;2022-07-01T02:58:12;5.40;;;1.60;;
19505;SDS011;9894;50.852;-0.140;2022-07-01T03:00:38;4.28;;;1.70;;
19505;SDS011;9894;50.852;-0.140;2022-07-01T03:03:04;7.90;;;2.10;;
19505;SDS011;9894;50.852;-0.140;2022-07-01T03:05:31;4.68;;;1.70;;
19505;SDS011;9894;50.852;-0.140;2022-07-01T03:07:57;4.18;;;1.50;;
19505;SDS011;9894;50.852;-0.140;2022-07-01T03:10:23;6.25;;;1.60;;
19505;SDS011;9894;50.852;-0.140;2022-07-01T03:12:49;4.38;;;1.70;;
19505;SDS011;9894;50.852;-0.140;2022-07-01T03:15:15;4.53;;;2.05;;
19505;SDS011;9894;50.852;-0.140;2022-07-01T03:17:42;6.53;;;2.53;;
19505;SDS011;9894;50.852;-0.140;2022-07-01T03:20:10;7.13;;;2.00;;
19505;SDS011;9894;50.852;-0.140;2022-07-01T03:22:37;5.97;;;1.90;;
19505;SDS011;9894;50.852;-0.140;2022-07-01T03:25:03;7.05;;;1.90;;
19505;SDS011;9894;50.852;-0.140;2022-07-01T03:27:30;5.38;;;1.70;;
19505;SDS011;9894;50.852;-0.140;2022-07-01T03:29:56;4.30;;;2.00;;
19505;SDS011;9894;50.852;-0.140;2022-07-01T03:32:23;5.28;;;2.00;;
19505;SDS011;9894;50.852;-0.140;2022-07-01T03:34:50;4.10;;;1.90;;
19505;SDS011;9894;50.852;-0.140;2022-07-01T03:37:17;7.40;;;2.08;;
19505;SDS011;9894;50.852;-0.140;2022-07-01T03:39:43;4.70;;;2.00;;
19505;SDS011;9894;50.852;-0.140;2022-07-01T03:42:09;5.95;;;2.00;;
19505;SDS011;9894;50.852;-0.140;2022-07-01T03:44:36;2.13;;;1.50;;
19505;SDS011;9894;50.852;-0.140;2022-07-01T03:47:03;7.97;;;1.90;;
19505;SDS011;9894;50.852;-0.140;2022-07-01T03:49:31;3.75;;;1.80;;
19505;SDS011;9894;50.852;-0.140;2022-07-01T03:51:57;4.90;;;1.40;;
19505;SDS011;9894;50.852;-0.140;2022-07-01T03:54:24;3.42;;;1.70;;
19505;SDS011;9894;50.852;-0.140;2022-07-01T03:57:04;3.80;;;1.90;;
19505;SDS011;9894;50.852;-0.140;2022-07-01T03:59:32;1.50;;;1.38;;
19505;SDS011;9894;50.852;-0.140;2022-07-01T04:01:59;2.72;;;1.50;;
19505;SDS011;9894;50.852;-0.140;2022-07-01T04:04:26;5.75;;;1.65;;
19505;SDS011;9894;50.852;-0.140;2022-07-01T04:06:52;2.88;;;1.63;;
19505;SDS011;9894;50.852;-0.140;2022-07-01T04:09:18;3.92;;;1.50;;
19505;SDS011;9894;50.852;-0.140;2022-07-01T04:11:45;2.97;;;1.30;;
19505;SDS011;9894;50.852;-0.140;2022-07-01T04:14:12;4.05;;;1.67;;
19505;SDS011;9894;50.852;-0.140;2022-07-01T04:16:38;2.60;;;1.48;;
19505;SDS011;9894;50.852;-0.140;2022-07-01T04:19:05;4.50;;;1.80;;
19505;SDS011;9894;50.852;-0.140;2022-07-01T04:21:31;3.20;;;1.67;;
19505;SDS011;9894;50.852;-0.140;2022-07-01T04:24:16;5.35;;;1.70;;
19505;SDS011;9894;50.852;-0.140;2022-07-01T04:26:43;2.38;;;1.40;;
19505;SDS011;9894;50.852;-0.140;2022-07-01T04:29:09;2.85;;;1.70;;
19505;SDS011;9894;50.852;-0.140;2022-07-01T04:31:36;2.97;;;1.70;;
19505;SDS011;9894;50.852;-0.140;2022-07-01T04:34:02;3.00;;;1.45;;
19505;SDS011;9894;50.852;-0.140;2022-07-01T04:36:29;4.07;;;1.63;;
19505;SDS011;9894;50.852;-0.140;2022-07-01T04:38:55;3.55;;;1.50;;
19505;SDS011;9894;50.852;-0.140;2022-07-01T04:41:21;3.63;;;1.67;;
19505;SDS011;9894;50.852;-0.140;2022-07-01T04:44:06;2.50;;;1.60;;
19505;SDS011;9894;50.852;-0.140;2022-07-01T04:46:33;6.03;;;2.00;;
19505;SDS011;9894;50.852;-0.140;2022-07-01T04:48:59;3.63;;;1.70;;
19505;SDS011;9894;50.852;-0.140;2022-07-01T04:51:25;4.43;;;1.48;;
19505;SDS011;9894;50.852;-0.140;2022-07-01T04:53:51;4.47;;;1.73;;
19505;SDS011;9894;50.852;-0.140;2022-07-01T04:56:18;4.38;;;1.83;;
19505;SDS011;9894;50.852;-0.140;2022-07-01T04:58:44;4.65;;;1.55;;
19505;SDS011;9894;50.852;-0.140;2022-07-01T05:01:10;1.85;;;1.45;;
19505;SDS011;9894;50.852;-0.140;2022-07-01T05:03:37;4.53;;;1.50;;
19505;SDS011;9894;50.852;-0.140;2022-07-01T05:06:03;5.22;;;1.63;;
19505;SDS011;9894;50.852;-0.140;2022-07-01T05:08:29;4.50;;;1.83;;
19505;SDS011;9894;50.852;-0.140;2022-07-01T05:10:55;4.05;;;1.90;;
19505;SDS011;9894;50.852;-0.140;2022-07-01T05:13:22;5.97;;;1.90;;
19505;SDS011;9894;50.852;-0.140;2022-07-01T05:15:48;4.50;;;1.95;;
19505;SDS011;9894;50.852;-0.140;2022-07-01T05:18:14;4.88;;;1.70;;
19505;SDS011;9894;50.852;-0.140;2022-07-01T05:20:59;4.60;;;2.13;;
19505;SDS011;9894;50.852;-0.140;2022-07-01T05:23:44;8.23;;;1.85;;
19505;SDS011;9894;50.852;-0.140;2022-07-01T05:26:10;4.22;;;1.63;;
19505;SDS011;9894;50.852;-0.140;2022-07-01T05:28:41;3.35;;;1.83;;
19505;SDS011;9894;50.852;-0.140;2022-07-01T05:31:07;3.00;;;1.85;;
19505;SDS011;9894;50.852;-0.140;2022-07-01T05:33:34;6.25;;;1.90;;
19505;SDS011;9894;50.852;-0.140;2022-07-01T05:36:00;4.00;;;1.98;;
19505;SDS011;9894;50.852;-0.140;2022-07-01T05:38:26;5.57;;;1.85;;
19505;SDS011;9894;50.852;-0.140;2022-07-01T05:40:52;6.10;;;1.80;;
19505;SDS011;9894;50.852;-0.140;2022-07-01T05:43:19;3.72;;;1.85;;
19505;SDS011;9894;50.852;-0.140;2022-07-01T05:45:45;4.47;;;1.73;;
19505;SDS011;9894;50.852;-0.140;2022-07-01T05:48:12;3.75;;;1.83;;
19505;SDS011;9894;50.852;-0.140;2022-07-01T05:50:39;5.13;;;2.20;;
19505;SDS011;9894;50.852;-0.140;2022-07-01T05:53:05;4.45;;;2.10;;
19505;SDS011;9894;50.852;-0.140;2022-07-01T05:55:32;3.78;;;1.90;;
19505;SDS011;9894;50.852;-0.140;2022-07-01T05:57:58;7.93;;;2.58;;
19505;SDS011;9894;50.852;-0.140;2022-07-01T06:00:26;5.45;;;2.08;;
19505;SDS011;9894;50.852;-0.140;2022-07-01T06:02:52;4.40;;;1.80;;
19505;SDS011;9894;50.852;-0.140;2022-07-01T06:05:18;3.60;;;1.80;;
19505;SDS011;9894;50.852;-0.140;2022-07-01T06:07:45;5.45;;;2.20;;
19505;SDS011;9894;50.852;-0.140;2022-07-01T06:10:11;6.00;;;2.50;;
19505;SDS011;9894;50.852;-0.140;2022-07-01T06:12:40;4.35;;;1.88;;
19505;SDS011;9894;50.852;-0.140;2022-07-01T06:15:07;8.73;;;1.88;;
19505;SDS011;9894;50.852;-0.140;2022-07-01T06:17:34;5.47;;;2.13;;
19505;SDS011;9894;50.852;-0.140;2022-07-01T06:20:00;5.07;;;1.98;;
19505;SDS011;9894;50.852;-0.140;2022-07-01T06:22:27;6.13;;;2.03;;
19505;SDS011;9894;50.852;-0.140;2022-07-01T06:24:53;8.35;;;1.95;;
19505;SDS011;9894;50.852;-0.140;2022-07-01T06:27:19;4.65;;;1.90;;
19505;SDS011;9894;50.852;-0.140;2022-07-01T06:29:45;3.78;;;1.70;;
19505;SDS011;9894;50.852;-0.140;2022-07-01T06:32:11;9.95;;;1.88;;
19505;SDS011;9894;50.852;-0.140;2022-07-01T06:34:37;3.70;;;1.80;;
19505;SDS011;9894;50.852;-0.140;2022-07-01T06:37:04;5.55;;;1.88;;
19505;SDS011;9894;50.852;-0.140;2022-07-01T06:39:30;2.08;;;1.60;;
19505;SDS011;9894;50.852;-0.140;2022-07-01T06:41:56;5.28;;;2.00;;
19505;SDS011;9894;50.852;-0.140;2022-07-01T06:44:22;2.63;;;1.50;;
19505;SDS011;9894;50.852;-0.140;2022-07-01T06:46:48;6.65;;;2.20;;
19505;SDS011;9894;50.852;-0.140;2022-07-01T06:49:15;4.38;;;1.60;;
19505;SDS011;9894;50.852;-0.140;2022-07-01T06:51:41;2.58;;;1.65;;
19505;SDS011;9894;50.852;-0.140;2022-07-01T06:54:07;7.88;;;2.00;;
19505;SDS011;9894;50.852;-0.140;2022-07-01T06:56:33;6.85;;;1.90;;
19505;SDS011;9894;50.852;-0.140;2022-07-01T06:59:00;5.28;;;1.80;;
19505;SDS011;9894;50.852;-0.140;2022-07-01T07:01:27;3.60;;;1.50;;
19505;SDS011;9894;50.852;-0.140;2022-07-01T07:03:53;9.88;;;1.95;;
19505;SDS011;9894;50.852;-0.140;2022-07-01T07:06:19;3.60;;;1.42;;
19505;SDS011;9894;50.852;-0.140;2022-07-01T07:08:45;2.40;;;1.60;;
19505;SDS011;9894;50.852;-0.140;2022-07-01T07:11:11;4.32;;;1.70;;
19505;SDS011;9894;50.852;-0.140;2022-07-01T07:13:40;4.43;;;1.50;;
19505;SDS011;9894;50.852;-0.140;2022-07-01T07:16:09;2.63;;;1.60;;
19505;SDS011;9894;50.852;-0.140;2022-07-01T07:18:36;2.55;;;1.45;;
19505;SDS011;9894;50.852;-0.140;2022-07-01T07:21:03;3.75;;;1.30;;
19505;SDS011;9894;50.852;-0.140;2022-07-01T07:23:29;5.15;;;1.50;;
19505;SDS011;9894;50.852;-0.140;2022-07-01T07:25:55;3.53;;;1.58;;
19505;SDS011;9894;50.852;-0.140;2022-07-01T07:28:21;3.03;;;1.42;;
19505;SDS011;9894;50.852;-0.140;2022-07-01T07:30:47;2.97;;;1.45;;
19505;SDS011;9894;50.852;-0.140;2022-07-01T07:33:13;6.60;;;1.70;;
19505;SDS011;9894;50.852;-0.140;2022-07-01T07:35:40;5.65;;;1.73;;
19505;SDS011;9894;50.852;-0.140;2022-07-01T07:38:07;4.63;;;1.70;;
19505;SDS011;9894;50.852;-0.140;2022-07-01T07:40:34;4.10;;;1.42;;
19505;SDS011;9894;50.852;-0.140;2022-07-01T07:43:00;4.63;;;1.55;;
19505;SDS011;9894;50.852;-0.140;2022-07-01T07:45:28;4.60;;;1.60;;
19505;SDS011;9894;50.852;-0.140;2022-07-01T07:47:54;5.00;;;1.80;;
19505;SDS011;9894;50.852;-0.140;2022-07-01T07:50:21;3.58;;;1.40;;
19505;SDS011;9894;50.852;-0.140;2022-07-01T07:52:48;4.60;;;1.48;;
19505;SDS011;9894;50.852;-0.140;2022-07-01T07:55:14;5.18;;;1.70;;
19505;SDS011;9894;50.852;-0.140;2022-07-01T07:57:40;2.08;;;1.55;;
19505;SDS011;9894;50.852;-0.140;2022-07-01T08:00:07;5.00;;;1.80;;
19505;SDS011;9894;50.852;-0.140;2022-07-01T08:02:37;5.82;;;1.70;;
19505;SDS011;9894;50.852;-0.140;2022-07-01T08:05:04;2.33;;;1.27;;
19505;SDS011;9894;50.852;-0.140;2022-07-01T08:07:30;5.47;;;1.60;;
19505;SDS011;9894;50.852;-0.140;2022-07-01T08:10:00;2.10;;;1.48;;
19505;SDS011;9894;50.852;-0.140;2022-07-01T08:12:26;3.85;;;1.48;;
19505;SDS011;9894;50.852;-0.140;2022-07-01T08:14:52;5.55;;;1.70;;
19505;SDS011;9894;50.852;-0.140;2022-07-01T08:17:18;5.63;;;1.95;;
19505;SDS011;9894;50.852;-0.140;2022-07-01T08:19:44;4.07;;;1.60;;
19505;SDS011;9894;50.852;-0.140;2022-07-01T08:22:10;1.88;;;1.40;;
19505;SDS011;9894;50.852;-0.140;2022-07-01T08:24:36;3.92;;;1.60;;
19505;SDS011;9894;50.852;-0.140;2022-07-01T08:27:03;6.45;;;1.92;;
19505;SDS011;9894;50.852;-0.140;2022-07-01T08:29:29;4.13;;;1.80;;
19505;SDS011;9894;50.852;-0.140;2022-07-01T08:31:55;5.32;;;2.08;;
19505;SDS011;9894;50.852;-0.140;2022-07-01T08:34:21;4.35;;;1.70;;
19505;SDS011;9894;50.852;-0.140;2022-07-01T08:36:47;4.63;;;1.80;;
19505;SDS011;9894;50.852;-0.140;2022-07-01T08:39:13;3.25;;;1.85;;
19505;SDS011;9894;50.852;-0.140;2022-07-01T08:41:42;5.13;;;2.00;;
19505;SDS011;9894;50.852;-0.140;2022-07-01T08:44:09;3.88;;;2.13;;
19505;SDS011;9894;50.852;-0.140;2022-07-01T08:46:35;6.65;;;2.20;;
19505;SDS011;9894;50.852;-0.140;2022-07-01T08:49:01;4.85;;;2.85;;
19505;SDS011;9894;50.852;-0.140;2022-07-01T08:51:27;6.32;;;2.75;;
19505;SDS011;9894;50.852;-0.140;2022-07-01T08:53:53;3.97;;;2.90;;
19505;SDS011;9894;50.852;-0.140;2022-07-01T08:56:19;5.95;;;3.60;;
19505;SDS011;9894;50.852;-0.140;2022-07-01T08:59:04;5.47;;;3.40;;
19505;SDS011;9894;50.852;-0.140;2022-07-01T09:01:32;4.80;;;3.75;;
19505;SDS011;9894;50.852;-0.140;2022-07-01T09:04:15;8.02;;;4.57;;
19505;SDS011;9894;50.852;-0.140;2022-07-01T09:06:42;4.70;;;4.00;;
19505;SDS011;9894;50.852;-0.140;2022-07-01T09:09:15;5.97;;;4.88;;
19505;SDS011;9894;50.852;-0.140;2022-07-01T09:11:49;9.68;;;4.70;;
19505;SDS011;9894;50.852;-0.140;2022-07-01T09:14:19;6.72;;;5.35;;
19505;SDS011;9894;50.852;-0.140;2022-07-01T09:16:56;6.85;;;5.20;;
19505;SDS011;9894;50.852;-0.140;2022-07-01T09:19:26;5.80;;;4.88;;
19505;SDS011;9894;50.852;-0.140;2022-07-01T09:21:57;5.20;;;4.70;;
19505;SDS011;9894;50.852;-0.140;2022-07-01T09:29:25;9.90;;;5.40;;
19505;SDS011;9894;50.852;-0.140;2022-07-01T09:31:51;7.93;;;6.45;;
19505;SDS011;9894;50.852;-0.140;2022-07-01T09:34:17;8.35;;;5.32;;
19505;SDS011;9894;50.852;-0.140;2022-07-01T09:36:51;7.25;;;5.65;;
19505;SDS011;9894;50.852;-0.140;2022-07-01T09:39:17;7.50;;;5.50;;
19505;SDS011;9894;50.852;-0.140;2022-07-01T09:41:43;10.55;;;5.30;;
19505;SDS011;9894;50.852;-0.140;2022-07-01T09:44:09;6.68;;;6.00;;
19505;SDS011;9894;50.852;-0.140;2022-07-01T09:46:35;10.13;;;6.20;;
19505;SDS011;9894;50.852;-0.140;2022-07-01T09:49:02;8.23;;;5.53;;
19505;SDS011;9894;50.852;-0.140;2022-07-01T09:51:28;8.80;;;6.13;;
19505;SDS011;9894;50.852;-0.140;2022-07-01T09:53:54;8.25;;;5.90;;
19505;SDS011;9894;50.852;-0.140;2022-07-01T09:56:24;8.43;;;7.03;;
19505;SDS011;9894;50.852;-0.140;2022-07-01T09:58:50;13.32;;;7.82;;
19505;SDS011;9894;50.852;-0.140;2022-07-01T10:01:16;10.02;;;8.25;;
19505;SDS011;9894;50.852;-0.140;2022-07-01T10:03:42;9.88;;;7.53;;
19505;SDS011;9894;50.852;-0.140;2022-07-01T10:06:27;10.75;;;8.40;;
19505;SDS011;9894;50.852;-0.140;2022-07-01T10:14:03;11.52;;;9.77;;
19505;SDS011;9894;50.852;-0.140;2022-07-01T10:16:30;10.88;;;9.77;;
19505;SDS011;9894;50.852;-0.140;2022-07-01T10:18:58;10.55;;;9.43;;
19505;SDS011;9894;50.852;-0.140;2022-07-01T10:21:28;10.45;;;9.45;;
19505;SDS011;9894;50.852;-0.140;2022-07-01T10:24:10;13.00;;;9.60;;
19505;SDS011;9894;50.852;-0.140;2022-07-01T10:26:36;11.05;;;9.68;;
19505;SDS011;9894;50.852;-0.140;2022-07-01T10:29:02;11.32;;;9.82;;
19505;SDS011;9894;50.852;-0.140;2022-07-01T10:31:36;12.07;;;10.50;;
19505;SDS011;9894;50.852;-0.140;2022-07-01T10:34:02;12.32;;;10.98;;
19505;SDS011;9894;50.852;-0.140;2022-07-01T10:36:32;12.50;;;10.70;;
19505;SDS011;9894;50.852;-0.140;2022-07-01T10:41:31;14.10;;;12.68;;
19505;SDS011;9894;50.852;-0.140;2022-07-01T10:43:57;16.00;;;13.45;;
19505;SDS011;9894;50.852;-0.140;2022-07-01T10:49:07;13.98;;;12.60;;
19505;SDS011;9894;50.852;-0.140;2022-07-01T10:54:08;14.13;;;12.73;;
19505;SDS011;9894;50.852;-0.140;2022-07-01T10:56:38;13.02;;;11.80;;
19505;SDS011;9894;50.852;-0.140;2022-07-01T10:59:05;16.55;;;15.00;;
19505;SDS011;9894;50.852;-0.140;2022-07-01T11:01:31;17.30;;;13.80;;
19505;SDS011;9894;50.852;-0.140;2022-07-01T11:03:57;13.25;;;11.95;;
19505;SDS011;9894;50.852;-0.140;2022-07-01T11:06:24;14.70;;;13.18;;
19505;SDS011;9894;50.852;-0.140;2022-07-01T11:08:50;14.18;;;12.85;;
19505;SDS011;9894;50.852;-0.140;2022-07-01T11:11:17;15.57;;;13.73;;
19505;SDS011;9894;50.852;-0.140;2022-07-01T11:13:44;13.73;;;12.60;;
19505;SDS011;9894;50.852;-0.140;2022-07-01T11:16:11;16.92;;;14.75;;
19505;SDS011;9894;50.852;-0.140;2022-07-01T11:18:37;15.25;;;13.40;;
19505;SDS011;9894;50.852;-0.140;2022-07-01T11:21:04;14.02;;;12.60;;
19505;SDS011;9894;50.852;-0.140;2022-07-01T11:23:31;14.77;;;13.27;;
19505;SDS011;9894;50.852;-0.140;2022-07-01T11:25:57;13.88;;;12.52;;
19505;SDS011;9894;50.852;-0.140;2022-07-01T11:28:23;13.93;;;12.63;;
19505;SDS011;9894;50.852;-0.140;2022-07-01T11:30:57;14.10;;;12.70;;
19505;SDS011;9894;50.852;-0.140;2022-07-01T11:33:23;15.57;;;13.00;;
19505;SDS011;9894;50.852;-0.140;2022-07-01T11:35:49;12.82;;;11.73;;
19505;SDS011;9894;50.852;-0.140;2022-07-01T11:38:54;13.45;;;11.95;;
19505;SDS011;9894;50.852;-0.140;2022-07-01T11:41:39;14.45;;;12.73;;
19505;SDS011;9894;50.852;-0.140;2022-07-01T11:44:05;14.05;;;12.73;;
19505;SDS011;9894;50.852;-0.140;2022-07-01T11:46:32;15.90;;;14.45;;
19505;SDS011;9894;50.852;-0.140;2022-07-01T11:48:58;14.00;;;12.80;;
19505;SDS011;9894;50.852;-0.140;2022-07-01T11:51:24;12.00;;;9.23;;
19505;SDS011;9894;50.852;-0.140;2022-07-01T11:53:55;10.40;;;8.27;;
19505;SDS011;9894;50.852;-0.140;2022-07-01T11:56:31;9.32;;;8.43;;
19505;SDS011;9894;50.852;-0.140;2022-07-01T11:58:59;8.63;;;7.80;;
19505;SDS011;9894;50.852;-0.140;2022-07-01T12:01:33;10.55;;;8.50;;
19505;SDS011;9894;50.852;-0.140;2022-07-01T12:04:04;10.52;;;8.00;;
19505;SDS011;9894;50.852;-0.140;2022-07-01T12:06:30;9.07;;;8.20;;
19505;SDS011;9894;50.852;-0.140;2022-07-01T12:08:57;10.20;;;8.23;;
19505;SDS011;9894;50.852;-0.140;2022-07-01T12:11:24;8.52;;;7.55;;
19505;SDS011;9894;50.852;-0.140;2022-07-01T12:13:51;10.95;;;8.85;;
19505;SDS011;9894;50.852;-0.140;2022-07-01T12:16:18;10.98;;;9.27;;
19505;SDS011;9894;50.852;-0.140;2022-07-01T12:21:47;12.02;;;7.32;;
19505;SDS011;9894;50.852;-0.140;2022-07-01T12:24:14;7.10;;;6.45;;
19505;SDS011;9894;50.852;-0.140;2022-07-01T12:27:01;10.20;;;7.22;;
19505;SDS011;9894;50.852;-0.140;2022-07-01T12:29:28;8.73;;;7.32;;
19505;SDS011;9894;50.852;-0.140;2022-07-01T12:32:04;9.32;;;7.40;;
19505;SDS011;9894;50.852;-0.140;2022-07-01T12:37:02;10.32;;;7.95;;
19505;SDS011;9894;50.852;-0.140;2022-07-01T12:39:28;8.52;;;6.50;;
19505;SDS011;9894;50.852;-0.140;2022-07-01T12:41:54;9.88;;;7.28;;
19505;SDS011;9894;50.852;-0.140;2022-07-01T12:44:23;9.63;;;7.00;;
19505;SDS011;9894;50.852;-0.140;2022-07-01T12:46:50;7.45;;;6.80;;
19505;SDS011;9894;50.852;-0.140;2022-07-01T12:49:20;7.88;;;6.80;;
19505;SDS011;9894;50.852;-0.140;2022-07-01T12:51:46;8.48;;;7.35;;
19505;SDS011;9894;50.852;-0.140;2022-07-01T12:54:28;8.77;;;6.40;;
19505;SDS011;9894;50.852;-0.140;2022-07-01T12:56:55;10.02;;;8.07;;
19505;SDS011;9894;50.852;-0.140;2022-07-01T12:59:22;10.30;;;8.00;;
19505;SDS011;9894;50.852;-0.140;2022-07-01T13:01:48;8.55;;;7.45;;
19505;SDS011;9894;50.852;-0.140;2022-07-01T13:04:22;7.93;;;6.30;;
19505;SDS011;9894;50.852;-0.140;2022-07-01T13:06:48;9.63;;;7.00;;
19505;SDS011;9894;50.852;-0.140;2022-07-01T13:09:14;7.68;;;6.88;;
19505;SDS011;9894;50.852;-0.140;2022-07-01T13:11:40;12.10;;;7.07;;
19505;SDS011;9894;50.852;-0.140;2022-07-01T13:14:07;10.48;;;8.35;;
19505;SDS011;9894;50.852;-0.140;2022-07-01T13:16:33;9.50;;;7.32;;
19505;SDS011;9894;50.852;-0.140;2022-07-01T13:18:59;10.20;;;7.47;;
19505;SDS011;9894;50.852;-0.140;2022-07-01T13:21:25;9.48;;;7.13;;
19505;SDS011;9894;50.852;-0.140;2022-07-01T13:23:51;8.07;;;6.70;;
19505;SDS011;9894;50.852;-0.140;2022-07-01T13:26:17;10.02;;;7.10;;
19505;SDS011;9894;50.852;-0.140;2022-07-01T13:28:44;9.32;;;7.40;;
19505;SDS011;9894;50.852;-0.140;2022-07-01T13:31:10;8.90;;;6.68;;
19505;SDS011;9894;50.852;-0.140;2022-07-01T13:33:37;9.10;;;7.00;;
19505;SDS011;9894;50.852;-0.140;2022-07-01T13:36:03;8.57;;;6.68;;
19505;SDS011;9894;50.852;-0.140;2022-07-01T13:38:29;9.68;;;7.70;;
19505;SDS011;9894;50.852;-0.140;2022-07-01T13:40:55;8.73;;;7.32;;
19505;SDS011;9894;50.852;-0.140;2022-07-01T13:43:21;7.80;;;7.00;;
19505;SDS011;9894;50.852;-0.140;2022-07-01T13:45:47;8.82;;;6.95;;
19505;SDS011;9894;50.852;-0.140;2022-07-01T13:48:13;8.15;;;6.70;;
19505;SDS011;9894;50.852;-0.140;2022-07-01T13:50:39;9.80;;;7.38;;
19505;SDS011;9894;50.852;-0.140;2022-07-01T13:53:05;10.98;;;6.57;;
19505;SDS011;9894;50.852;-0.140;2022-07-01T13:55:32;9.55;;;6.43;;
19505;SDS011;9894;50.852;-0.140;2022-07-01T13:57:58;6.35;;;5.72;;
19505;SDS011;9894;50.852;-0.140;2022-07-01T14:00:24;8.82;;;6.18;;
19505;SDS011;9894;50.852;-0.140;2022-07-01T14:02:51;7.10;;;6.50;;
19505;SDS011;9894;50.852;-0.140;2022-07-01T14:05:17;7.68;;;6.97;;
19505;SDS011;9894;50.852;-0.140;2022-07-01T14:07:43;11.18;;;6.20;;
19505;SDS011;9894;50.852;-0.140;2022-07-01T14:10:10;8.73;;;6.53;;
19505;SDS011;9894;50.852;-0.140;2022-07-01T14:12:36;8.10;;;6.97;;
19505;SDS011;9894;50.852;-0.140;2022-07-01T14:15:02;9.10;;;6.75;;
19505;SDS011;9894;50.852;-0.140;2022-07-01T14:17:29;7.72;;;6.97;;
19505;SDS011;9894;50.852;-0.140;2022-07-01T14:19:55;10.40;;;6.90;;
19505;SDS011;9894;50.852;-0.140;2022-07-01T14:22:22;8.32;;;6.25;;
19505;SDS011;9894;50.852;-0.140;2022-07-01T14:24:48;8.25;;;6.60;;
19505;SDS011;9894;50.852;-0.140;2022-07-01T14:27:14;9.40;;;6.90;;
19505;SDS011;9894;50.852;-0.140;2022-07-01T14:29:41;9.20;;;6.88;;
19505;SDS011;9894;50.852;-0.140;2022-07-01T14:32:07;7.80;;;7.07;;
19505;SDS011;9894;50.852;-0.140;2022-07-01T14:34:33;8.88;;;6.35;;
19505;SDS011;9894;50.852;-0.140;2022-07-01T14:36:59;10.88;;;6.80;;
19505;SDS011;9894;50.852;-0.140;2022-07-01T14:39:25;10.55;;;7.20;;
19505;SDS011;9894;50.852;-0.140;2022-07-01T14:41:51;7.72;;;6.93;;
19505;SDS011;9894;50.852;-0.140;2022-07-01T14:44:18;8.65;;;7.20;;
19505;SDS011;9894;50.852;-0.140;2022-07-01T14:46:44;7.05;;;5.80;;
19505;SDS011;9894;50.852;-0.140;2022-07-01T14:49:10;8.60;;;6.45;;
19505;SDS011;9894;50.852;-0.140;2022-07-01T14:51:37;9.93;;;5.88;;
19505;SDS011;9894;50.852;-0.140;2022-07-01T14:54:03;8.15;;;6.25;;
19505;SDS011;9894;50.852;-0.140;2022-07-01T14:56:30;7.35;;;5.53;;
19505;SDS011;9894;50.852;-0.140;2022-07-01T14:58:56;9.20;;;6.18;;
19505;SDS011;9894;50.852;-0.140;2022-07-01T15:01:22;8.93;;;6.15;;
19505;SDS011;9894;50.852;-0.140;2022-07-01T15:03:48;7.60;;;5.88;;
19505;SDS011;9894;50.852;-0.140;2022-07-01T15:06:14;7.80;;;6.03;;